Time;durP1;ratioP1;P1;durP2;ratioP2;P2;SDS_P1;SDS_P2;PMS_P1;PMS_P2;Temp;Humidity;BMP_temperature;BMP_pressure;BME280_temperature;BME280_humidity;BME280_pressure;Samples;Min_cycle;Max_cycle;Signal;HPM_P1;HPM_P2
2022/03/29 00:00:45;;;;;;;;;;;;;;;;;;5136237;27;20017;-76
2022/03/29 00:03:10;;;;;;;;;;;;;;;;;;5137398;27;20005;-77
2022/03/29 00:05:36;;;;;;;;;;;;;;;;;;5136970;27;19919;-76
2022/03/29 00:08:02;;;;;;;;;;;;;;;;;;5137191;27;19923;-77
2022/03/29 00:10:27;;;;;;;;;;;;;;;;;;5136938;27;19919;-76
2022/03/29 00:12:53;;;;;;;;;;;;;;;;;;5137320;27;19922;-77
2022/03/29 00:15:22;;;;;;;;;;;;;;;;;;5130610;27;20300;-76
2022/03/29 00:17:48;;;;;;;;;;;;;;;;;;5096039;28;19966;-76
2022/03/29 00:20:19;;;;;;;;;;;;;;;;;;5095965;28;19916;-77
2022/03/29 00:22:48;;;;;;;;;;;;;;;;;;5095993;28;19923;-76
2022/03/29 00:25:14;;;;;;;;;;;;;;;;;;5095832;28;20401;-76
2022/03/29 00:27:39;;;;;;;;;;;;;;;;;;5096051;28;19971;-76
2022/03/29 00:30:06;;;;;;;;;;;;;;;;;;5095843;28;19920;-76
2022/03/29 00:32:32;;;;;;;;;;;;;;;;;;5095864;28;19942;-76
2022/03/29 00:34:57;;;;;;;;;;;;;;;;;;5095850;28;19920;-77
2022/03/29 00:37:23;;;;;;;;;;;;;;;;;;5093657;28;19920;-77
2022/03/29 00:39:48;;;;;;;;;;;;;;;;;;5094879;28;19916;-76
2022/03/29 00:42:14;;;;;;;;;;;;;;;;;;5095763;28;19923;-76
2022/03/29 00:44:39;;;;;;;;;;;;;;;;;;5095938;28;19920;-76
2022/03/29 00:47:04;;;;;;;;;;;;;;;;;;5095420;28;19968;-77
2022/03/29 00:49:30;;;;;;;;;;;;;;;;;;5095746;28;19916;-76
2022/03/29 00:51:58;;;;;;;;;;;;;;;;;;5094372;28;19920;-78
2022/03/29 00:54:29;;;;;;;;;;;;;;;;;;5095218;28;19916;-78
2022/03/29 00:56:58;;;;;;;;;;;;;;;;;;5095395;28;19916;-77
2022/03/29 00:59:24;;;;;;;;;;;;;;;;;;5095734;28;19920;-77
2022/03/29 01:01:49;;;;;;;;;;;;;;;;;;5094164;28;19916;-77
2022/03/29 01:04:15;;;;;;;;;;;;;;;;;;5095126;28;19989;-78
2022/03/29 01:06:42;;;;;;;;;;;;;;;;;;5095424;28;19920;-76
2022/03/29 01:09:07;;;;;;;;;;;;;;;;;;5095119;28;19920;-78
2022/03/29 01:11:32;;;;;;;;;;;;;;;;;;5094950;28;19920;-77
2022/03/29 01:13:59;;;;;;;;;;;;;;;;;;5095282;28;19916;-77
2022/03/29 01:19:09;;;;;;;;;;;;;;;;;;5135792;27;19915;-77
2022/03/29 01:21:35;;;;;;;;;;;;;;;;;;5134550;27;20409;-76
2022/03/29 01:24:01;;;;;;;;;;;;;;;;;;5135321;27;19970;-76
2022/03/29 01:26:27;;;;;;;;;;;;;;;;;;5135937;27;19916;-76
2022/03/29 01:28:53;;;;;;;;;;;;;;;;;;5135631;27;19922;-76
2022/03/29 01:31:18;;;;;;;;;;;;;;;;;;5135434;27;19920;-78
2022/03/29 01:33:44;;;;;;;;;;;;;;;;;;5135169;27;19923;-78
2022/03/29 01:36:10;;;;;;;;;;;;;;;;;;5135334;27;20405;-77
2022/03/29 01:38:35;;;;;;;;;;;;;;;;;;5135219;27;19919;-77
2022/03/29 01:41:03;;;;;;;;;;;;;;;;;;5135595;27;20319;-77
2022/03/29 01:43:28;;;;;;;;;;;;;;;;;;5135755;27;19915;-77
2022/03/29 01:45:54;;;;;;;;;;;;;;;;;;5128112;27;19923;-77
2022/03/29 01:48:19;;;;;;;;;;;;;;;;;;5115140;28;19915;-76
2022/03/29 01:50:45;;;;;;;;;;;;;;;;;;5113619;28;19916;-76
2022/03/29 01:53:31;;;;;;;;;;;;;;;;;;5114515;28;19915;-77
2022/03/29 01:55:57;;;;;;;;;;;;;;;;;;5114349;27;20010;-77
2022/03/29 01:58:23;;;;;;;;;;;;;;;;;;5114670;28;19922;-77
2022/03/29 02:00:49;;;;;;;;;;;;;;;;;;5114229;28;19923;-77
2022/03/29 02:03:14;;;;;;;;;;;;;;;;;;5114174;28;19916;-76
2022/03/29 02:05:39;;;;;;;;;;;;;;;;;;5114310;28;19920;-76
2022/03/29 02:08:05;;;;;;;;;;;;;;;;;;5114496;27;19920;-76
2022/03/29 02:10:30;;;;;;;;;;;;;;;;;;5113244;28;20044;-76
2022/03/29 02:12:56;;;;;;;;;;;;;;;;;;5113614;28;19943;-77
2022/03/29 02:15:21;;;;;;;;;;;;;;;;;;5112091;28;19915;-77
2022/03/29 02:17:50;;;;;;;;;;;;;;;;;;5094689;28;19920;-77
2022/03/29 02:20:16;;;;;;;;;;;;;;;;;;5094187;28;20388;-79
2022/03/29 02:22:42;;;;;;;;;;;;;;;;;;5093833;28;19916;-78
2022/03/29 02:25:07;;;;;;;;;;;;;;;;;;5093800;28;20316;-77
2022/03/29 02:27:33;;;;;;;;;;;;;;;;;;5094129;28;19922;-78
2022/03/29 02:29:58;;;;;;;;;;;;;;;;;;5093028;28;19916;-77
2022/03/29 02:32:24;;;;;;;;;;;;;;;;;;5093966;28;20292;-77
2022/03/29 02:34:49;;;;;;;;;;;;;;;;;;5093631;28;19927;-79
2022/03/29 02:37:14;;;;;;;;;;;;;;;;;;5093815;28;20301;-76
2022/03/29 02:39:40;;;;;;;;;;;;;;;;;;5094042;28;20293;-77
2022/03/29 02:42:06;;;;;;;;;;;;;;;;;;5093775;28;19920;-78
2022/03/29 02:44:31;;;;;;;;;;;;;;;;;;5093964;28;19960;-80
2022/03/29 02:46:56;;;;;;;;;;;;;;;;;;5106446;28;19916;-77
2022/03/29 02:49:23;;;;;;;;;;;;;;;;;;5096224;28;20503;-79
2022/03/29 02:51:49;;;;;;;;;;;;;;;;;;5096531;28;20033;-82
2022/03/29 02:54:14;;;;;;;;;;;;;;;;;;5095272;28;19916;-79
2022/03/29 02:56:40;;;;;;;;;;;;;;;;;;5092951;28;19924;-78
2022/03/29 02:59:05;;;;;;;;;;;;;;;;;;5095945;28;19920;-78
2022/03/29 03:01:30;;;;;;;;;;;;;;;;;;5099439;28;19963;-78
2022/03/29 03:03:56;;;;;;;;;;;;;;;;;;5097958;28;19920;-79
2022/03/29 03:06:22;;;;;;;;;;;;;;;;;;5099387;28;19912;-79
2022/03/29 03:08:47;;;;;;;;;;;;;;;;;;5099826;28;19916;-78
2022/03/29 03:11:13;;;;;;;;;;;;;;;;;;5099674;28;19969;-79
2022/03/29 03:13:38;;;;;;;;;;;;;;;;;;5099325;28;19916;-79
2022/03/29 03:16:04;;;;;;;;;;;;;;;;;;5116854;27;20384;-79
2022/03/29 03:18:29;;;;;;;;;;;;;;;;;;5139968;27;19924;-79
2022/03/29 03:20:54;;;;;;;;;;;;;;;;;;5139056;27;19915;-79
2022/03/29 03:23:20;;;;;;;;;;;;;;;;;;5138176;27;19911;-80
2022/03/29 03:25:45;;;;;;;;;;;;;;;;;;5137499;27;20006;-80
2022/03/29 03:28:10;;;;;;;;;;;;;;;;;;5137764;27;19922;-80
2022/03/29 03:30:36;;;;;;;;;;;;;;;;;;5136652;27;20293;-80
2022/03/29 03:33:01;;;;;;;;;;;;;;;;;;5137584;27;19916;-79
2022/03/29 03:35:26;;;;;;;;;;;;;;;;;;5137986;27;19919;-79
2022/03/29 03:37:52;;;;;;;;;;;;;;;;;;5140091;27;20297;-79
2022/03/29 03:40:17;;;;;;;;;;;;;;;;;;5139916;27;19915;-79
2022/03/29 03:42:42;;;;;;;;;;;;;;;;;;5138907;27;20296;-79
2022/03/29 03:45:08;;;;;;;;;;;;;;;;;;5138877;27;19961;-79
2022/03/29 03:47:34;;;;;;;;;;;;;;;;;;5126125;27;19976;-79
2022/03/29 03:49:59;;;;;;;;;;;;;;;;;;5139013;27;19915;-80
2022/03/29 03:52:25;;;;;;;;;;;;;;;;;;5139574;27;19927;-79
2022/03/29 03:54:50;;;;;;;;;;;;;;;;;;5139375;27;19951;-79
2022/03/29 03:57:17;;;;;;;;;;;;;;;;;;5137626;27;19915;-79
2022/03/29 03:59:44;;;;;;;;;;;;;;;;;;5139265;27;19915;-79
2022/03/29 04:02:10;;;;;;;;;;;;;;;;;;5138994;27;19975;-79
2022/03/29 04:04:35;;;;;;;;;;;;;;;;;;5137723;27;19928;-79
2022/03/29 04:07:01;;;;;;;;;;;;;;;;;;5139218;27;19960;-79
2022/03/29 04:09:27;;;;;;;;;;;;;;;;;;5139041;27;19922;-79
2022/03/29 04:11:52;;;;;;;;;;;;;;;;;;5140117;27;19916;-80
2022/03/29 04:14:17;;;;;;;;;;;;;;;;;;5139221;27;19922;-80
2022/03/29 04:16:42;;;;;;;;;;;;;;;;;;5126865;27;19958;-80
2022/03/29 04:19:08;;;;;;;;;;;;;;;;;;5119470;28;19915;-79
2022/03/29 04:21:34;;;;;;;;;;;;;;;;;;5119605;28;19915;-80
2022/03/29 04:23:59;;;;;;;;;;;;;;;;;;5118586;28;20242;-79
2022/03/29 04:26:25;;;;;;;;;;;;;;;;;;5118835;28;19919;-79
2022/03/29 04:28:50;;;;;;;;;;;;;;;;;;5117482;28;20007;-79
2022/03/29 04:31:15;;;;;;;;;;;;;;;;;;5117641;28;19920;-79
2022/03/29 04:33:41;;;;;;;;;;;;;;;;;;5117241;28;19923;-79
2022/03/29 04:36:06;;;;;;;;;;;;;;;;;;5118831;28;20428;-79
2022/03/29 04:38:32;;;;;;;;;;;;;;;;;;5118679;28;19916;-79
2022/03/29 04:40:57;;;;;;;;;;;;;;;;;;5117417;28;19916;-79
2022/03/29 04:43:22;;;;;;;;;;;;;;;;;;5118118;28;20366;-79
2022/03/29 04:45:48;;;;;;;;;;;;;;;;;;5112174;28;19920;-80
2022/03/29 04:48:14;;;;;;;;;;;;;;;;;;5097664;28;19916;-78
2022/03/29 04:50:39;;;;;;;;;;;;;;;;;;5098930;28;19920;-79
2022/03/29 04:53:05;;;;;;;;;;;;;;;;;;5097027;28;19959;-79
2022/03/29 04:55:30;;;;;;;;;;;;;;;;;;5098685;28;19922;-79
2022/03/29 04:57:56;;;;;;;;;;;;;;;;;;5098791;28;19926;-79
2022/03/29 05:00:21;;;;;;;;;;;;;;;;;;5097309;28;19920;-79
2022/03/29 05:02:47;;;;;;;;;;;;;;;;;;5097047;28;20753;-78
2022/03/29 05:05:13;;;;;;;;;;;;;;;;;;5098294;28;20015;-79
2022/03/29 05:07:39;;;;;;;;;;;;;;;;;;5097927;28;19916;-78
2022/03/29 05:10:05;;;;;;;;;;;;;;;;;;5098332;28;19916;-79
2022/03/29 05:12:37;;;;;;;;;;;;;;;;;;5098278;28;19923;-79
2022/03/29 05:15:02;;;;;;;;;;;;;;;;;;5098219;28;19938;-80
2022/03/29 05:17:31;;;;;;;;;;;;;;;;;;5114663;28;19919;-80
2022/03/29 05:19:56;;;;;;;;;;;;;;;;;;5118121;28;19926;-79
2022/03/29 05:22:21;;;;;;;;;;;;;;;;;;5099240;28;20015;-79
2022/03/29 05:24:47;;;;;;;;;;;;;;;;;;5118062;28;19971;-79
2022/03/29 05:27:12;;;;;;;;;;;;;;;;;;5116745;28;19916;-79
2022/03/29 05:29:38;;;;;;;;;;;;;;;;;;5117951;28;19923;-79
2022/03/29 05:32:03;;;;;;;;;;;;;;;;;;5117657;28;19958;-79
2022/03/29 05:34:29;;;;;;;;;;;;;;;;;;5116045;28;19927;-79
2022/03/29 05:36:54;;;;;;;;;;;;;;;;;;5117682;27;19919;-79
2022/03/29 05:39:20;;;;;;;;;;;;;;;;;;5115940;28;19923;-79
2022/03/29 05:41:45;;;;;;;;;;;;;;;;;;5118356;28;19969;-79
2022/03/29 05:44:11;;;;;;;;;;;;;;;;;;5119465;28;19920;-79
2022/03/29 05:49:20;;;;;;;;;;;;;;;;;;5118670;28;20052;-80
2022/03/29 05:51:46;;;;;;;;;;;;;;;;;;5118581;28;19951;-80
2022/03/29 05:54:11;;;;;;;;;;;;;;;;;;5117428;28;20352;-80
2022/03/29 05:56:36;;;;;;;;;;;;;;;;;;5118347;27;19919;-79
2022/03/29 05:59:02;;;;;;;;;;;;;;;;;;5118352;28;19920;-79
2022/03/29 06:01:27;;;;;;;;;;;;;;;;;;5117842;28;20015;-79
2022/03/29 06:03:52;;;;;;;;;;;;;;;;;;5117480;28;20315;-79
2022/03/29 06:06:18;;;;;;;;;;;;;;;;;;5117687;28;19923;-79
2022/03/29 06:08:43;;;;;;;;;;;;;;;;;;5117651;28;19946;-79
2022/03/29 06:11:09;;;;;;;;;;;;;;;;;;5117843;28;19915;-79
2022/03/29 06:13:34;;;;;;;;;;;;;;;;;;5117774;28;20392;-80
2022/03/29 06:16:00;;;;;;;;;;;;;;;;;;5115891;28;19958;-79
2022/03/29 06:18:25;;;;;;;;;;;;;;;;;;5116059;28;19919;-79
2022/03/29 06:20:51;;;;;;;;;;;;;;;;;;5117432;28;20003;-79
2022/03/29 06:23:16;;;;;;;;;;;;;;;;;;5117506;28;19918;-79
2022/03/29 06:25:41;;;;;;;;;;;;;;;;;;5116294;28;19959;-79
2022/03/29 06:28:07;;;;;;;;;;;;;;;;;;5117154;28;20437;-79
2022/03/29 06:30:33;;;;;;;;;;;;;;;;;;5115254;28;19941;-77
2022/03/29 06:32:59;;;;;;;;;;;;;;;;;;5114489;28;19941;-77
2022/03/29 06:35:25;;;;;;;;;;;;;;;;;;5112437;28;19920;-77
2022/03/29 06:37:52;;;;;;;;;;;;;;;;;;5114793;28;19927;-77
2022/03/29 06:40:17;;;;;;;;;;;;;;;;;;5115206;28;20373;-82
2022/03/29 06:42:43;;;;;;;;;;;;;;;;;;5113734;28;19923;-76
2022/03/29 06:45:09;;;;;;;;;;;;;;;;;;5114538;28;19927;-79
2022/03/29 06:47:35;;;;;;;;;;;;;;;;;;5112686;28;19919;-75
2022/03/29 06:50:00;;;;;;;;;;;;;;;;;;5113150;28;19923;-76
2022/03/29 06:52:28;;;;;;;;;;;;;;;;;;5112685;28;19920;-75
2022/03/29 06:54:54;;;;;;;;;;;;;;;;;;5114060;28;20273;-76
2022/03/29 06:57:20;;;;;;;;;;;;;;;;;;5113858;28;19916;-76
2022/03/29 06:59:46;;;;;;;;;;;;;;;;;;5114048;28;19922;-77
2022/03/29 07:02:13;;;;;;;;;;;;;;;;;;5113244;28;20277;-77
2022/03/29 07:04:38;;;;;;;;;;;;;;;;;;5113641;28;19945;-75
2022/03/29 07:07:04;;;;;;;;;;;;;;;;;;5113043;28;19916;-76
2022/03/29 07:12:13;;;;;;;;;;;;;;;;;;5113775;28;20025;-77
2022/03/29 07:14:39;;;;;;;;;;;;;;;;;;5114162;28;19955;-77
2022/03/29 07:17:11;;;;;;;;;;;;;;;;;;5119064;28;19922;-77
2022/03/29 07:19:36;;;;;;;;;;;;;;;;;;5131615;28;19915;-77
2022/03/29 07:22:02;;;;;;;;;;;;;;;;;;5133291;27;19923;-77
2022/03/29 07:24:27;;;;;;;;;;;;;;;;;;5132779;27;19923;-77
2022/03/29 07:26:52;;;;;;;;;;;;;;;;;;5133316;27;19911;-77
2022/03/29 07:29:18;;;;;;;;;;;;;;;;;;5134200;27;19915;-76
2022/03/29 07:31:43;;;;;;;;;;;;;;;;;;5134193;27;20002;-77
2022/03/29 07:34:09;;;;;;;;;;;;;;;;;;5133574;27;19920;-77
2022/03/29 07:36:34;;;;;;;;;;;;;;;;;;5133592;27;20019;-77
2022/03/29 07:39:00;;;;;;;;;;;;;;;;;;5134521;27;19915;-76
2022/03/29 07:41:25;;;;;;;;;;;;;;;;;;5134190;27;19964;-77
2022/03/29 07:43:50;;;;;;;;;;;;;;;;;;5134111;27;19915;-77
2022/03/29 07:46:16;;;;;;;;;;;;;;;;;;5135756;27;20286;-77
2022/03/29 07:48:41;;;;;;;;;;;;;;;;;;5134225;27;19931;-77
2022/03/29 07:51:07;;;;;;;;;;;;;;;;;;5117264;28;19916;-77
2022/03/29 07:53:32;;;;;;;;;;;;;;;;;;5117271;28;19959;-77
2022/03/29 07:55:58;;;;;;;;;;;;;;;;;;5117168;28;19950;-77
2022/03/29 07:58:23;;;;;;;;;;;;;;;;;;5119419;28;19922;-79
2022/03/29 08:00:50;;;;;;;;;;;;;;;;;;5120332;28;19916;-79
2022/03/29 08:03:16;;;;;;;;;;;;;;;;;;5117061;28;19920;-77
2022/03/29 08:05:44;;;;;;;;;;;;;;;;;;5116017;27;19926;-77
2022/03/29 08:08:11;;;;;;;;;;;;;;;;;;5117348;28;19916;-78
2022/03/29 08:10:37;;;;;;;;;;;;;;;;;;5117634;28;19923;-79
2022/03/29 08:13:03;;;;;;;;;;;;;;;;;;5117745;28;19916;-78
2022/03/29 08:15:30;;;;;;;;;;;;;;;;;;5116593;28;19916;-77
2022/03/29 08:17:56;;;;;;;;;;;;;;;;;;5115569;28;20307;-77
2022/03/29 08:20:21;;;;;;;;;;;;;;;;;;5116508;28;19922;-77
2022/03/29 08:22:47;;;;;;;;;;;;;;;;;;5116386;28;19915;-77
2022/03/29 08:25:15;;;;;;;;;;;;;;;;;;5116649;28;19924;-78
2022/03/29 08:27:41;;;;;;;;;;;;;;;;;;5116668;28;19916;-78
2022/03/29 08:30:07;;;;;;;;;;;;;;;;;;5118001;28;19964;-75
2022/03/29 08:32:33;;;;;;;;;;;;;;;;;;5113304;28;20330;-75
2022/03/29 08:35:05;;;;;;;;;;;;;;;;;;5098282;28;19920;-76
2022/03/29 08:37:30;;;;;;;;;;;;;;;;;;5096334;28;19964;-78
2022/03/29 08:39:56;;;;;;;;;;;;;;;;;;5098163;28;19982;-80
2022/03/29 08:42:23;;;;;;;;;;;;;;;;;;5097875;28;19957;-78
2022/03/29 08:44:48;;;;;;;;;;;;;;;;;;5098453;28;20650;-78
2022/03/29 08:47:15;;;;;;;;;;;;;;;;;;5097634;28;19916;-77
2022/03/29 08:49:41;;;;;;;;;;;;;;;;;;5096642;28;20435;-77
2022/03/29 08:52:07;;;;;;;;;;;;;;;;;;5099002;27;19916;-78
2022/03/29 08:54:32;;;;;;;;;;;;;;;;;;5116610;28;19969;-77
2022/03/29 08:56:58;;;;;;;;;;;;;;;;;;5115577;27;19916;-77
2022/03/29 08:59:25;;;;;;;;;;;;;;;;;;5115610;28;19923;-76
2022/03/29 09:01:51;;;;;;;;;;;;;;;;;;5115712;28;19922;-77
2022/03/29 09:04:21;;;;;;;;;;;;;;;;;;5115463;28;20315;-76
2022/03/29 09:06:49;;;;;;;;;;;;;;;;;;5115503;28;19915;-76
2022/03/29 09:09:30;;;;;;;;;;;;;;;;;;5115554;28;19923;-78
2022/03/29 09:11:56;;;;;;;;;;;;;;;;;;5116943;28;20120;-79
2022/03/29 09:14:22;;;;;;;;;;;;;;;;;;5116361;28;19916;-76
2022/03/29 09:16:49;;;;;;;;;;;;;;;;;;5101161;28;20289;-79
2022/03/29 09:19:14;;;;;;;;;;;;;;;;;;5096495;28;19916;-77
2022/03/29 09:21:43;;;;;;;;;;;;;;;;;;5096895;28;19923;-82
2022/03/29 09:24:09;;;;;;;;;;;;;;;;;;5096678;28;19924;-80
2022/03/29 09:26:36;;;;;;;;;;;;;;;;;;5095865;28;20370;-77
2022/03/29 09:29:03;;;;;;;;;;;;;;;;;;5094940;28;19920;-78
2022/03/29 09:31:29;;;;;;;;;;;;;;;;;;5093681;28;19916;-78
2022/03/29 09:34:11;;;;;;;;;;;;;;;;;;5094610;28;19920;-77
2022/03/29 09:36:40;;;;;;;;;;;;;;;;;;5094623;28;19919;-77
2022/03/29 09:39:06;;;;;;;;;;;;;;;;;;5094765;28;20331;-78
2022/03/29 09:41:32;;;;;;;;;;;;;;;;;;5094816;28;20007;-78
2022/03/29 09:43:58;;;;;;;;;;;;;;;;;;5093271;28;20384;-77
2022/03/29 09:46:23;;;;;;;;;;;;;;;;;;5104736;28;19915;-75
2022/03/29 09:48:49;;;;;;;;;;;;;;;;;;5114560;28;19916;-73
2022/03/29 09:51:16;;;;;;;;;;;;;;;;;;5115112;28;19968;-74
2022/03/29 09:53:41;;;;;;;;;;;;;;;;;;5113605;28;20285;-72
2022/03/29 09:56:07;;;;;;;;;;;;;;;;;;5109969;28;19915;-76
2022/03/29 09:58:33;;;;;;;;;;;;;;;;;;5097246;28;19923;-74
2022/03/29 10:00:58;;;;;;;;;;;;;;;;;;5094687;28;20269;-75
2022/03/29 10:03:24;;;;;;;;;;;;;;;;;;5093110;28;19920;-78
2022/03/29 10:05:50;;;;;;;;;;;;;;;;;;5094121;28;19920;-75
2022/03/29 10:11:01;;;;;;;;;;;;;;;;;;5094297;28;19985;-74
2022/03/29 10:13:29;;;;;;;;;;;;;;;;;;5094198;28;19927;-72
2022/03/29 10:15:55;;;;;;;;;;;;;;;;;;5092749;28;19920;-73
2022/03/29 10:18:24;;;;;;;;;;;;;;;;;;5107990;28;19942;-73
2022/03/29 10:20:49;;;;;;;;;;;;;;;;;;5113421;28;19915;-73
2022/03/29 10:23:14;;;;;;;;;;;;;;;;;;5106383;28;19923;-74
2022/03/29 10:25:41;;;;;;;;;;;;;;;;;;5095145;28;20397;-78
2022/03/29 10:28:07;;;;;;;;;;;;;;;;;;5092465;28;19970;-73
2022/03/29 10:30:37;;;;;;;;;;;;;;;;;;5093837;28;19955;-75
2022/03/29 10:33:18;;;;;;;;;;;;;;;;;;5099306;28;19938;-76
2022/03/29 10:36:00;;;;;;;;;;;;;;;;;;5106751;28;19927;-76
2022/03/29 10:38:46;;;;;;;;;;;;;;;;;;5103072;28;20438;-77
2022/03/29 10:41:27;;;;;;;;;;;;;;;;;;5111742;28;20434;-74
2022/03/29 10:44:01;;;;;;;;;;;;;;;;;;5112661;28;19922;-74
2022/03/29 10:46:46;;;;;;;;;;;;;;;;;;5112857;28;19951;-73
2022/03/29 10:49:15;;;;;;;;;;;;;;;;;;5113802;28;20354;-73
2022/03/29 10:51:40;;;;;;;;;;;;;;;;;;5112916;28;20297;-73
2022/03/29 10:54:24;;;;;;;;;;;;;;;;;;5113916;28;19916;-73
2022/03/29 10:56:57;;;;;;;;;;;;;;;;;;5113937;28;20341;-73
2022/03/29 10:59:22;;;;;;;;;;;;;;;;;;5113995;28;19916;-73
2022/03/29 11:02:06;;;;;;;;;;;;;;;;;;5114053;28;19912;-74
2022/03/29 11:04:31;;;;;;;;;;;;;;;;;;5114129;28;19924;-74
2022/03/29 11:07:06;;;;;;;;;;;;;;;;;;5113963;28;20064;-74
2022/03/29 11:09:32;;;;;;;;;;;;;;;;;;5114015;28;19938;-74
2022/03/29 11:11:59;;;;;;;;;;;;;;;;;;5113705;28;19915;-74
2022/03/29 11:14:27;;;;;;;;;;;;;;;;;;5113272;28;19923;-74
2022/03/29 11:17:12;;;;;;;;;;;;;;;;;;5113716;28;20425;-74
2022/03/29 11:19:38;;;;;;;;;;;;;;;;;;5113205;28;20361;-74
2022/03/29 11:22:21;;;;;;;;;;;;;;;;;;5116880;27;20410;-74
2022/03/29 11:24:47;;;;;;;;;;;;;;;;;;5117528;28;20312;-74
2022/03/29 11:27:19;;;;;;;;;;;;;;;;;;5116731;28;19918;-75
2022/03/29 11:29:45;;;;;;;;;;;;;;;;;;5115789;28;19923;-75
2022/03/29 11:32:14;;;;;;;;;;;;;;;;;;5115931;28;20284;-75
2022/03/29 11:34:40;;;;;;;;;;;;;;;;;;5115754;28;20285;-75
2022/03/29 11:37:06;;;;;;;;;;;;;;;;;;5117256;28;19916;-75
2022/03/29 11:39:32;;;;;;;;;;;;;;;;;;5115682;28;19922;-75
2022/03/29 11:41:58;;;;;;;;;;;;;;;;;;5117424;28;19916;-77
2022/03/29 11:44:26;;;;;;;;;;;;;;;;;;5117672;28;19919;-78
2022/03/29 11:46:53;;;;;;;;;;;;;;;;;;5120361;28;20014;-78
2022/03/29 11:49:20;;;;;;;;;;;;;;;;;;5121263;28;19916;-78
2022/03/29 11:52:23;;;;;;;;;;;;;;;;;;5120457;28;20381;-77
2022/03/29 11:54:51;;;;;;;;;;;;;;;;;;5060650;28;20381;-78
2022/03/29 11:57:20;;;;;;;;;;;;;;;;;;5080036;28;20381;-78
2022/03/29 11:59:45;;;;;;;;;;;;;;;;;;5100000;28;20293;-79
2022/03/29 12:02:11;;;;;;;;;;;;;;;;;;5118527;28;19916;-79
2022/03/29 12:04:37;;;;;;;;;;;;;;;;;;5119849;28;19927;-78
2022/03/29 12:07:02;;;;;;;;;;;;;;;;;;5120371;28;19988;-78
2022/03/29 12:09:30;;;;;;;;;;;;;;;;;;5120148;28;19920;-78
2022/03/29 12:11:56;;;;;;;;;;;;;;;;;;5117836;28;19916;-78
2022/03/29 12:14:22;;;;;;;;;;;;;;;;;;5119659;28;19963;-78
2022/03/29 12:16:57;;;;;;;;;;;;;;;;;;5119452;28;19958;-78
2022/03/29 12:19:27;;;;;;;;;;;;;;;;;;5119163;28;19973;-78
2022/03/29 12:21:53;;;;;;;;;;;;;;;;;;5119059;28;19939;-78
2022/03/29 12:24:20;;;;;;;;;;;;;;;;;;5120220;28;19920;-78
2022/03/29 12:26:49;;;;;;;;;;;;;;;;;;5120935;28;19951;-78
2022/03/29 12:29:20;;;;;;;;;;;;;;;;;;5118814;28;19916;-77
2022/03/29 12:31:46;;;;;;;;;;;;;;;;;;5118294;28;20444;-78
2022/03/29 12:34:14;;;;;;;;;;;;;;;;;;5119114;28;19982;-78
2022/03/29 12:36:49;;;;;;;;;;;;;;;;;;5118380;28;19916;-78
2022/03/29 12:39:16;;;;;;;;;;;;;;;;;;5119501;28;19920;-78
2022/03/29 12:41:47;;;;;;;;;;;;;;;;;;5106259;28;19920;-78
2022/03/29 12:44:14;;;;;;;;;;;;;;;;;;5099032;28;19966;-78
2022/03/29 12:46:41;;;;;;;;;;;;;;;;;;5110075;28;20354;-81
2022/03/29 12:49:06;;;;;;;;;;;;;;;;;;5100888;28;20434;-79
2022/03/29 12:51:33;;;;;;;;;;;;;;;;;;5102892;28;19912;-80
2022/03/29 12:54:30;;;;;;;;;;;;;;;;;;5124172;27;19915;-82
2022/03/29 12:56:57;;;;;;;;;;;;;;;;;;5123029;28;19923;-81
2022/03/29 12:59:40;;;;;;;;;;;;;;;;;;5122638;28;19916;-81
2022/03/29 13:02:10;;;;;;;;;;;;;;;;;;5120378;28;20384;-79
2022/03/29 13:04:37;;;;;;;;;;;;;;;;;;5107988;28;19924;-80
2022/03/29 13:07:03;;;;;;;;;;;;;;;;;;5105836;28;19916;-80
2022/03/29 13:09:28;;;;;;;;;;;;;;;;;;5104550;28;19969;-80
2022/03/29 13:12:20;;;;;;;;;;;;;;;;;;5102521;28;19916;-80
2022/03/29 13:14:46;;;;;;;;;;;;;;;;;;5098975;28;19915;-80
2022/03/29 13:17:12;;;;;;;;;;;;;;;;;;5102933;28;19923;-81
2022/03/29 13:19:51;;;;;;;;;;;;;;;;;;5106572;28;19916;-80
2022/03/29 13:22:17;;;;;;;;;;;;;;;;;;5123135;28;19919;-80
2022/03/29 13:24:43;;;;;;;;;;;;;;;;;;5123430;28;20296;-80
2022/03/29 13:27:08;;;;;;;;;;;;;;;;;;5121857;28;19916;-80
2022/03/29 13:29:34;;;;;;;;;;;;;;;;;;5124638;28;19923;-80
2022/03/29 13:32:00;;;;;;;;;;;;;;;;;;5124388;28;19923;-80
2022/03/29 13:34:26;;;;;;;;;;;;;;;;;;5124515;28;19931;-80
2022/03/29 13:36:52;;;;;;;;;;;;;;;;;;5125923;28;19916;-80
2022/03/29 13:39:18;;;;;;;;;;;;;;;;;;5126244;28;20010;-80
2022/03/29 13:41:43;;;;;;;;;;;;;;;;;;5129559;28;19923;-80
2022/03/29 13:44:08;;;;;;;;;;;;;;;;;;5128521;28;20053;-80
2022/03/29 13:46:34;;;;;;;;;;;;;;;;;;5131191;28;19916;-80
2022/03/29 13:48:59;;;;;;;;;;;;;;;;;;5130353;28;19983;-80
2022/03/29 13:51:25;;;;;;;;;;;;;;;;;;5128803;28;20030;-80
2022/03/29 13:53:51;;;;;;;;;;;;;;;;;;5126842;28;19963;-80
2022/03/29 13:56:16;;;;;;;;;;;;;;;;;;5126076;28;19950;-80
2022/03/29 13:58:42;;;;;;;;;;;;;;;;;;5127112;28;19915;-80
2022/03/29 14:01:07;;;;;;;;;;;;;;;;;;5126603;28;19915;-80
2022/03/29 14:03:33;;;;;;;;;;;;;;;;;;5124828;28;19912;-80
2022/03/29 14:06:01;;;;;;;;;;;;;;;;;;5127441;28;19920;-80
2022/03/29 14:08:27;;;;;;;;;;;;;;;;;;5126229;28;19987;-80
2022/03/29 14:10:53;;;;;;;;;;;;;;;;;;5128367;28;19915;-80
2022/03/29 14:13:18;;;;;;;;;;;;;;;;;;5123437;28;20012;-80
2022/03/29 14:15:47;;;;;;;;;;;;;;;;;;5125009;28;19955;-80
2022/03/29 14:18:13;;;;;;;;;;;;;;;;;;5124368;28;19947;-80
2022/03/29 14:20:40;;;;;;;;;;;;;;;;;;5127696;28;19923;-80
2022/03/29 14:23:06;;;;;;;;;;;;;;;;;;5123818;28;19916;-80
2022/03/29 14:25:36;;;;;;;;;;;;;;;;;;5125618;28;19919;-80
2022/03/29 14:28:02;;;;;;;;;;;;;;;;;;5126515;28;19955;-80
2022/03/29 14:30:28;;;;;;;;;;;;;;;;;;5126281;28;19919;-80
2022/03/29 14:32:53;;;;;;;;;;;;;;;;;;5125011;28;19966;-80
2022/03/29 14:35:18;;;;;;;;;;;;;;;;;;5121242;28;19972;-80
2022/03/29 14:37:44;;;;;;;;;;;;;;;;;;5122621;28;20007;-81
2022/03/29 14:40:10;;;;;;;;;;;;;;;;;;5104753;28;19916;-80
2022/03/29 14:42:36;;;;;;;;;;;;;;;;;;5122475;28;19916;-80
2022/03/29 14:45:03;;;;;;;;;;;;;;;;;;5122461;28;19988;-81
2022/03/29 14:47:31;;;;;;;;;;;;;;;;;;5122478;28;21253;-80
2022/03/29 14:49:56;;;;;;;;;;;;;;;;;;5107519;28;19920;-80
2022/03/29 14:52:22;;;;;;;;;;;;;;;;;;5124633;27;19961;-80
2022/03/29 14:54:50;;;;;;;;;;;;;;;;;;5123917;28;20023;-80
2022/03/29 14:57:15;;;;;;;;;;;;;;;;;;5129490;28;19923;-80
2022/03/29 14:59:42;;;;;;;;;;;;;;;;;;5129474;28;19912;-80
2022/03/29 15:02:08;;;;;;;;;;;;;;;;;;5129134;28;19915;-80
2022/03/29 15:04:33;;;;;;;;;;;;;;;;;;5129836;28;19926;-80
2022/03/29 15:06:59;;;;;;;;;;;;;;;;;;5130713;28;19916;-80
2022/03/29 15:09:24;;;;;;;;;;;;;;;;;;5122716;28;19920;-79
2022/03/29 15:11:50;;;;;;;;;;;;;;;;;;5121732;28;20400;-79
2022/03/29 15:14:16;;;;;;;;;;;;;;;;;;5119989;28;19969;-79
2022/03/29 15:16:41;;;;;;;;;;;;;;;;;;5121932;28;20085;-79
2022/03/29 15:19:07;;;;;;;;;;;;;;;;;;5121528;28;20296;-79
2022/03/29 15:21:32;;;;;;;;;;;;;;;;;;5121457;28;19916;-79
2022/03/29 15:23:58;;;;;;;;;;;;;;;;;;5119954;28;19923;-79
2022/03/29 15:26:23;;;;;;;;;;;;;;;;;;5120847;28;19916;-79
2022/03/29 15:28:49;;;;;;;;;;;;;;;;;;5120578;28;20457;-79
2022/03/29 15:31:14;;;;;;;;;;;;;;;;;;5119361;28;20005;-79
2022/03/29 15:33:40;;;;;;;;;;;;;;;;;;5120865;28;19939;-79
2022/03/29 15:36:05;;;;;;;;;;;;;;;;;;5120655;28;20073;-79
2022/03/29 15:38:34;;;;;;;;;;;;;;;;;;5120584;28;19977;-79
2022/03/29 15:40:59;;;;;;;;;;;;;;;;;;5120224;28;20406;-79
2022/03/29 15:43:27;;;;;;;;;;;;;;;;;;5121821;28;19920;-80
2022/03/29 15:45:52;;;;;;;;;;;;;;;;;;5123417;28;19941;-79
2022/03/29 15:48:18;;;;;;;;;;;;;;;;;;5124757;27;19916;-80
2022/03/29 15:50:44;;;;;;;;;;;;;;;;;;5123842;28;19965;-79
2022/03/29 15:53:09;;;;;;;;;;;;;;;;;;5123573;28;20381;-79
2022/03/29 15:55:36;;;;;;;;;;;;;;;;;;5123851;28;19922;-79
2022/03/29 15:58:02;;;;;;;;;;;;;;;;;;5123056;28;19998;-79
2022/03/29 16:00:27;;;;;;;;;;;;;;;;;;5121346;28;19939;-79
2022/03/29 16:02:54;;;;;;;;;;;;;;;;;;5123389;27;20046;-79
2022/03/29 16:05:19;;;;;;;;;;;;;;;;;;5123102;28;20339;-81
2022/03/29 16:07:44;;;;;;;;;;;;;;;;;;5125698;28;19916;-80
2022/03/29 16:10:10;;;;;;;;;;;;;;;;;;5122352;28;19916;-78
2022/03/29 16:12:36;;;;;;;;;;;;;;;;;;5121531;28;19915;-80
2022/03/29 16:15:12;;;;;;;;;;;;;;;;;;5122008;28;19915;-79
2022/03/29 16:17:38;;;;;;;;;;;;;;;;;;5122417;28;19916;-79
2022/03/29 16:20:04;;;;;;;;;;;;;;;;;;5120814;28;19923;-78
2022/03/29 16:22:30;;;;;;;;;;;;;;;;;;5122414;28;19915;-79
2022/03/29 16:24:55;;;;;;;;;;;;;;;;;;5122907;28;19920;-79
2022/03/29 16:27:20;;;;;;;;;;;;;;;;;;5122335;28;20377;-79
2022/03/29 16:29:46;;;;;;;;;;;;;;;;;;5122179;28;19966;-79
2022/03/29 16:32:11;;;;;;;;;;;;;;;;;;5121377;27;19965;-79
2022/03/29 16:34:36;;;;;;;;;;;;;;;;;;5121871;28;19930;-79
2022/03/29 16:37:02;;;;;;;;;;;;;;;;;;5121435;28;19969;-79
2022/03/29 16:39:27;;;;;;;;;;;;;;;;;;5122303;28;19922;-79
2022/03/29 16:41:53;;;;;;;;;;;;;;;;;;5119845;28;19950;-79
2022/03/29 16:44:18;;;;;;;;;;;;;;;;;;5120827;28;19920;-80
2022/03/29 16:46:44;;;;;;;;;;;;;;;;;;5123416;28;19915;-79
2022/03/29 16:49:10;;;;;;;;;;;;;;;;;;5121854;28;20018;-80
2022/03/29 16:51:35;;;;;;;;;;;;;;;;;;5122032;28;19916;-79
2022/03/29 16:54:01;;;;;;;;;;;;;;;;;;5123652;28;19916;-79